KPGV/PGV METAR and TAF weather

Enter ICAO airport designator
Station Type Date Time Source
KPGV METAR 2019/04/20 18:05 UTC NOAA

KPGV 201805Z AUTO 21013G22KT 10SM SCT050 20/07 A2981 RMK AO2


Station Type Date Time Source
KPGV Decoded METAR 2019/04/20 18:05 UTC NOAA

Pitt-Greenville Airport, NC, United States (KPGV) 35-38N 077-24W
Apr 20, 2019 - 02:05 PM EDT / 2019.04.20 1805 UTC
Wind: from the SSW (210 degrees) at 15 MPH (13 KT) gusting to 25 MPH (22 KT):0
Visibility: 10 mile(s):0
Sky conditions: partly cloudy
Temperature: 68 F (20 C)
Dew Point: 44 F (7 C)
Relative Humidity: 42%
Pressure (altimeter): 29.81 in. Hg (1009 hPa)
ob: KPGV 201805Z AUTO 21013G22KT 10SM SCT050 20/07 A2981 RMK AO2
cycle: 18

Station Type Date Time Source
KPGV TAF 2019/04/20 18:27 UTC NOAA

TAF KPGV 201724Z 2018/2118 20012G22KT P6SM SCT050
FM202300 21006KT P6SM SCT200
FM211400 24006KT P6SM SCT035
FM211600 24007KT P6SM BKN040
AMD LTD TO CLD VIS AND WIND

Example: see airport list